Time;durP1;ratioP1;P1;durP2;ratioP2;P2;SDS_P1;SDS_P2;PMS_P1;PMS_P2;Temp;Humidity;BMP_temperature;BMP_pressure;BME280_temperature;BME280_humidity;BME280_pressure;Samples;Min_cycle;Max_cycle;Signal;HPM_P1;HPM_P2
2022/05/05 00:01:14;;;;;;;3.65;1.90;;;;;;;;;;1763472;81;21053;-70
2022/05/05 00:03:41;;;;;;;3.15;1.87;;;;;;;;;;1763198;81;21147;-70
2022/05/05 00:06:08;;;;;;;2.75;1.67;;;;;;;;;;1763372;81;21085;-70
2022/05/05 00:08:34;;;;;;;3.35;1.57;;;;;;;;;;1763428;81;21006;-70
2022/05/05 00:16:30;;;;;;;3.00;1.60;;;;;;;;;;1747806;82;21567;-70
2022/05/05 00:18:56;;;;;;;2.75;1.57;;;;;;;;;;1749220;81;21555;-70
2022/05/05 00:21:22;;;;;;;3.75;1.70;;;;;;;;;;1750096;81;21065;-70
2022/05/05 00:23:49;;;;;;;2.75;1.67;;;;;;;;;;1763459;81;21021;-70
2022/05/05 00:26:15;;;;;;;2.00;1.50;;;;;;;;;;1763481;81;21065;-70
2022/05/05 00:28:41;;;;;;;2.15;1.87;;;;;;;;;;1752754;81;21037;-70
2022/05/05 00:31:07;;;;;;;4.80;2.12;;;;;;;;;;1748967;81;20981;-70
2022/05/05 00:33:34;;;;;;;3.12;1.80;;;;;;;;;;1748037;82;21079;-70
2022/05/05 00:36:00;;;;;;;3.70;2.22;;;;;;;;;;1747929;82;21406;-70
2022/05/05 00:38:26;;;;;;;2.95;1.60;;;;;;;;;;1748021;82;20988;-70
2022/05/05 00:40:53;;;;;;;3.52;2.02;;;;;;;;;;1752223;81;21463;-70
2022/05/05 00:43:19;;;;;;;2.80;1.90;;;;;;;;;;1761958;81;21056;-72
2022/05/05 00:45:45;;;;;;;2.77;1.90;;;;;;;;;;1763790;81;21058;-70
2022/05/05 00:48:12;;;;;;;3.42;1.82;;;;;;;;;;1763697;81;21025;-70
2022/05/05 00:50:38;;;;;;;3.80;1.80;;;;;;;;;;1761005;81;21004;-71
2022/05/05 00:53:05;;;;;;;3.02;1.80;;;;;;;;;;1754102;81;20990;-70
2022/05/05 00:55:32;;;;;;;3.60;1.80;;;;;;;;;;1763495;81;21056;-70
2022/05/05 00:57:58;;;;;;;2.25;1.80;;;;;;;;;;1763575;81;21025;-70
2022/05/05 01:00:25;;;;;;;1.85;1.62;;;;;;;;;;1757404;81;21014;-71
2022/05/05 01:05:32;;;;;;;5.20;1.80;;;;;;;;;;1664945;85;21153;-72
2022/05/05 01:07:58;;;;;;;2.83;1.80;;;;;;;;;;1637282;88;21566;-72
2022/05/05 01:10:25;;;;;;;3.20;1.90;;;;;;;;;;1637596;87;21054;-73
2022/05/05 01:12:51;;;;;;;2.35;1.65;;;;;;;;;;1638518;87;21042;-72
2022/05/05 01:15:17;;;;;;;2.85;1.90;;;;;;;;;;1692082;84;21009;-72
2022/05/05 01:17:43;;;;;;;2.72;1.90;;;;;;;;;;1697100;84;21024;-72
2022/05/05 01:20:13;;;;;;;2.55;1.80;;;;;;;;;;1697042;83;21076;-72
2022/05/05 01:22:39;;;;;;;2.42;1.90;;;;;;;;;;1695674;84;22181;-72
2022/05/05 01:30:44;;;;;;;3.15;1.80;;;;;;;;;;1695544;85;21084;-73
2022/05/05 01:33:18;;;;;;;3.50;1.72;;;;;;;;;;1695601;85;21604;-73
2022/05/05 01:35:45;;;;;;;2.83;1.95;;;;;;;;;;1695221;84;21080;-72
2022/05/05 01:38:12;;;;;;;2.72;1.80;;;;;;;;;;1695505;84;21076;-72
2022/05/05 01:40:39;;;;;;;2.52;1.70;;;;;;;;;;1695355;85;21139;-72
2022/05/05 01:43:06;;;;;;;2.27;1.72;;;;;;;;;;1695324;85;21500;-72
2022/05/05 01:45:32;;;;;;;2.47;1.80;;;;;;;;;;1695788;84;21079;-73
2022/05/05 01:47:58;;;;;;;3.45;1.80;;;;;;;;;;1696539;84;21414;-72
2022/05/05 01:50:24;;;;;;;1.90;1.70;;;;;;;;;;1696700;84;21567;-73
2022/05/05 01:52:51;;;;;;;3.25;1.90;;;;;;;;;;1696837;84;21587;-73
2022/05/05 01:55:17;;;;;;;2.52;1.87;;;;;;;;;;1696769;84;21047;-72
2022/05/05 01:57:44;;;;;;;4.25;2.05;;;;;;;;;;1696802;84;21080;-73
2022/05/05 02:00:10;;;;;;;3.95;2.02;;;;;;;;;;1696963;84;21515;-73
2022/05/05 02:02:42;;;;;;;2.67;1.65;;;;;;;;;;1695824;84;21088;-73
2022/05/05 02:05:09;;;;;;;4.60;1.72;;;;;;;;;;1694602;84;21118;-73
2022/05/05 02:07:35;;;;;;;2.72;1.80;;;;;;;;;;1695606;85;21035;-73
2022/05/05 02:10:03;;;;;;;2.58;1.70;;;;;;;;;;1695844;85;21574;-72
2022/05/05 02:12:30;;;;;;;2.83;1.92;;;;;;;;;;1695408;84;21086;-73
2022/05/05 02:14:57;;;;;;;2.52;1.80;;;;;;;;;;1695656;85;21058;-72
2022/05/05 02:17:23;;;;;;;2.85;1.90;;;;;;;;;;1695626;85;21558;-72
2022/05/05 02:19:49;;;;;;;2.75;1.87;;;;;;;;;;1695623;85;21549;-72
2022/05/05 02:22:15;;;;;;;2.55;1.70;;;;;;;;;;1695898;84;21035;-72
2022/05/05 02:24:41;;;;;;;2.60;1.80;;;;;;;;;;1695755;85;20996;-72
2022/05/05 02:27:08;;;;;;;2.17;1.85;;;;;;;;;;1695841;85;21475;-72
2022/05/05 02:29:35;;;;;;;3.02;1.70;;;;;;;;;;1695310;85;21117;-71
2022/05/05 02:32:01;;;;;;;2.70;1.90;;;;;;;;;;1696457;84;21062;-72
2022/05/05 02:34:27;;;;;;;4.10;1.90;;;;;;;;;;1697236;84;21045;-72
2022/05/05 02:39:37;;;;;;;2.05;1.80;;;;;;;;;;1697249;84;21054;-72
2022/05/05 02:42:03;;;;;;;2.47;2.00;;;;;;;;;;1696293;84;21014;-71
2022/05/05 02:44:29;;;;;;;2.62;1.98;;;;;;;;;;1695764;85;21097;-72
2022/05/05 02:46:55;;;;;;;2.52;1.98;;;;;;;;;;1695784;85;21043;-72
2022/05/05 02:49:22;;;;;;;4.67;2.10;;;;;;;;;;1695767;85;21106;-72
2022/05/05 02:51:48;;;;;;;4.65;2.10;;;;;;;;;;1696597;84;21093;-72
2022/05/05 02:56:58;;;;;;;2.85;1.77;;;;;;;;;;1697278;84;21053;-72
2022/05/05 02:59:24;;;;;;;5.92;2.17;;;;;;;;;;1696884;84;21074;-72
2022/05/05 03:01:50;;;;;;;3.05;1.80;;;;;;;;;;1696526;84;21054;-71
2022/05/05 03:04:16;;;;;;;2.47;1.90;;;;;;;;;;1697181;84;21108;-72
2022/05/05 03:06:42;;;;;;;3.98;2.00;;;;;;;;;;1696928;84;21117;-72
2022/05/05 03:09:08;;;;;;;2.77;1.72;;;;;;;;;;1680268;85;21007;-72
2022/05/05 03:11:35;;;;;;;4.05;2.10;;;;;;;;;;1679773;85;21095;-73
2022/05/05 03:14:01;;;;;;;2.52;2.00;;;;;;;;;;1678619;85;21503;-72
2022/05/05 03:16:28;;;;;;;2.98;1.90;;;;;;;;;;1678775;85;21035;-72
2022/05/05 03:18:54;;;;;;;3.25;2.20;;;;;;;;;;1678858;85;21039;-72
2022/05/05 03:21:20;;;;;;;2.20;1.87;;;;;;;;;;1679395;85;21071;-72
2022/05/05 03:23:46;;;;;;;2.83;1.72;;;;;;;;;;1679151;85;21050;-72
2022/05/05 03:26:13;;;;;;;2.60;2.00;;;;;;;;;;1678850;85;21083;-72
2022/05/05 03:28:39;;;;;;;4.55;2.02;;;;;;;;;;1678810;85;21091;-71
2022/05/05 03:31:06;;;;;;;6.40;2.25;;;;;;;;;;1678410;85;21131;-72
2022/05/05 03:33:33;;;;;;;3.95;2.45;;;;;;;;;;1678836;85;21067;-73
2022/05/05 03:35:59;;;;;;;3.02;2.20;;;;;;;;;;1678694;85;21102;-72
2022/05/05 03:38:24;;;;;;;2.77;2.20;;;;;;;;;;1678903;85;21019;-72
2022/05/05 03:40:54;;;;;;;3.37;2.02;;;;;;;;;;1678911;85;21039;-72
2022/05/05 03:43:20;;;;;;;3.65;2.15;;;;;;;;;;1678390;85;21078;-72
2022/05/05 03:45:46;;;;;;;4.33;2.50;;;;;;;;;;1680579;85;21083;-72
2022/05/05 03:48:12;;;;;;;3.33;1.95;;;;;;;;;;1676855;85;21067;-72
2022/05/05 03:50:39;;;;;;;2.80;1.92;;;;;;;;;;1679659;85;21012;-72
2022/05/05 03:53:05;;;;;;;4.03;2.20;;;;;;;;;;1680283;85;22303;-72
2022/05/05 03:55:31;;;;;;;2.40;2.00;;;;;;;;;;1680144;85;21023;-71
2022/05/05 03:57:58;;;;;;;3.00;2.00;;;;;;;;;;1680404;85;21019;-71
2022/05/05 04:00:24;;;;;;;4.37;2.22;;;;;;;;;;1680023;85;21017;-71
2022/05/05 04:05:37;;;;;;;3.67;2.20;;;;;;;;;;1678738;84;21594;-71
2022/05/05 04:08:05;;;;;;;4.05;2.02;;;;;;;;;;1678443;85;21053;-72
2022/05/05 04:10:31;;;;;;;3.12;2.27;;;;;;;;;;1679204;85;21110;-73
2022/05/05 04:12:57;;;;;;;2.55;1.95;;;;;;;;;;1675393;85;21047;-73
2022/05/05 04:15:23;;;;;;;3.42;2.00;;;;;;;;;;1679380;85;21059;-73
2022/05/05 04:17:49;;;;;;;4.30;2.00;;;;;;;;;;1680398;85;21628;-72
2022/05/05 04:20:16;;;;;;;4.10;2.20;;;;;;;;;;1680056;85;21538;-73
2022/05/05 04:22:43;;;;;;;4.67;2.12;;;;;;;;;;1680079;85;21086;-72
2022/05/05 04:25:09;;;;;;;3.55;2.30;;;;;;;;;;1679368;85;21047;-72
2022/05/05 04:27:37;;;;;;;2.77;2.02;;;;;;;;;;1680294;85;21047;-72
2022/05/05 04:30:03;;;;;;;4.10;2.35;;;;;;;;;;1680149;85;21083;-72
2022/05/05 04:32:30;;;;;;;3.65;2.30;;;;;;;;;;1679630;85;21082;-72
2022/05/05 04:34:56;;;;;;;4.15;2.70;;;;;;;;;;1679739;85;21015;-71
2022/05/05 04:37:22;;;;;;;3.10;2.08;;;;;;;;;;1679185;85;21043;-71
2022/05/05 04:39:48;;;;;;;5.20;2.37;;;;;;;;;;1679510;85;21526;-71
2022/05/05 04:42:15;;;;;;;5.37;2.80;;;;;;;;;;1679679;85;21074;-71
2022/05/05 04:44:41;;;;;;;4.37;2.50;;;;;;;;;;1669599;85;20995;-72
2022/05/05 04:47:07;;;;;;;4.78;2.87;;;;;;;;;;1679898;85;21067;-72
2022/05/05 04:49:33;;;;;;;5.30;2.80;;;;;;;;;;1679802;85;20988;-71
2022/05/05 04:51:59;;;;;;;4.83;2.62;;;;;;;;;;1679581;85;21518;-73
2022/05/05 04:54:25;;;;;;;4.25;2.60;;;;;;;;;;1679943;85;21015;-71
2022/05/05 04:56:52;;;;;;;3.70;2.52;;;;;;;;;;1680030;85;21054;-72
2022/05/05 04:59:18;;;;;;;4.67;2.87;;;;;;;;;;1679414;85;21031;-72
2022/05/05 05:01:44;;;;;;;6.83;2.75;;;;;;;;;;1679381;85;21031;-72
2022/05/05 05:04:10;;;;;;;4.42;2.90;;;;;;;;;;1680033;85;21134;-73
2022/05/05 05:06:36;;;;;;;5.20;2.60;;;;;;;;;;1685414;85;21645;-72
2022/05/05 05:09:03;;;;;;;4.78;3.10;;;;;;;;;;1684907;85;21090;-71
2022/05/05 05:11:29;;;;;;;5.37;2.62;;;;;;;;;;1684963;85;21187;-72
2022/05/05 05:13:56;;;;;;;3.70;2.30;;;;;;;;;;1686055;85;21542;-71
2022/05/05 05:16:21;;;;;;;6.20;2.60;;;;;;;;;;1686091;85;21019;-71
2022/05/05 05:18:50;;;;;;;4.90;2.72;;;;;;;;;;1685707;85;21085;-71
2022/05/05 05:21:16;;;;;;;4.33;2.50;;;;;;;;;;1684688;85;21058;-71
2022/05/05 05:23:41;;;;;;;3.42;2.15;;;;;;;;;;1685092;85;22144;-71
2022/05/05 05:26:07;;;;;;;3.17;2.40;;;;;;;;;;1685857;85;21027;-72
2022/05/05 05:28:33;;;;;;;4.12;2.58;;;;;;;;;;1686468;85;21007;-72
2022/05/05 05:30:59;;;;;;;7.55;2.98;;;;;;;;;;1686391;85;21035;-72
2022/05/05 05:33:25;;;;;;;4.92;2.52;;;;;;;;;;1685886;85;21015;-72
2022/05/05 05:35:51;;;;;;;4.33;2.62;;;;;;;;;;1686440;85;21522;-72
2022/05/05 05:38:18;;;;;;;4.60;2.58;;;;;;;;;;1684700;84;21027;-72
2022/05/05 05:40:43;;;;;;;4.65;2.80;;;;;;;;;;1657288;86;21071;-72
2022/05/05 05:43:09;;;;;;;4.08;2.65;;;;;;;;;;1664349;86;21010;-71
2022/05/05 05:45:36;;;;;;;4.47;2.20;;;;;;;;;;1664302;86;21491;-72
2022/05/05 05:48:02;;;;;;;3.98;2.33;;;;;;;;;;1664367;86;21055;-71
2022/05/05 05:50:30;;;;;;;4.67;2.52;;;;;;;;;;1668698;85;21093;-72
2022/05/05 05:52:56;;;;;;;3.60;2.47;;;;;;;;;;1693684;85;21609;-72
2022/05/05 05:55:22;;;;;;;2.85;2.10;;;;;;;;;;1693525;85;21066;-72
2022/05/05 05:57:49;;;;;;;3.05;2.00;;;;;;;;;;1693441;84;21593;-72
2022/05/05 06:00:15;;;;;;;3.55;2.20;;;;;;;;;;1685489;85;21030;-72
2022/05/05 06:05:26;;;;;;;3.10;2.02;;;;;;;;;;1694538;84;21049;-72
2022/05/05 06:07:54;;;;;;;21.50;3.27;;;;;;;;;;1701225;84;21576;-71
2022/05/05 06:10:20;;;;;;;2.35;1.70;;;;;;;;;;1700971;84;21057;-72
2022/05/05 06:12:46;;;;;;;2.80;1.90;;;;;;;;;;1701203;84;21069;-72
2022/05/05 06:15:13;;;;;;;4.08;2.37;;;;;;;;;;1701386;84;21077;-73
2022/05/05 06:17:39;;;;;;;2.70;2.20;;;;;;;;;;1701373;84;21042;-72
2022/05/05 06:20:06;;;;;;;4.20;1.92;;;;;;;;;;1703387;83;21626;-73
2022/05/05 06:22:34;;;;;;;3.33;1.98;;;;;;;;;;1712703;83;21152;-72
2022/05/05 06:25:01;;;;;;;6.65;2.42;;;;;;;;;;1723784;83;21024;-72
2022/05/05 06:27:27;;;;;;;3.67;2.20;;;;;;;;;;1736231;83;21560;-71
2022/05/05 06:29:53;;;;;;;2.55;1.90;;;;;;;;;;1736125;83;21005;-72
2022/05/05 06:32:19;;;;;;;2.02;1.70;;;;;;;;;;1736217;83;21048;-72
2022/05/05 06:34:45;;;;;;;2.00;1.70;;;;;;;;;;1733507;83;20988;-72
2022/05/05 06:37:12;;;;;;;2.83;2.00;;;;;;;;;;1701092;84;21019;-72
2022/05/05 06:39:38;;;;;;;2.70;1.82;;;;;;;;;;1700998;84;21154;-73
2022/05/05 06:42:05;;;;;;;2.80;1.80;;;;;;;;;;1718464;83;21622;-73
2022/05/05 06:44:33;;;;;;;2.87;1.90;;;;;;;;;;1701090;83;21554;-73
2022/05/05 06:46:59;;;;;;;3.87;1.90;;;;;;;;;;1687270;84;20993;-72
2022/05/05 06:49:25;;;;;;;7.10;2.00;;;;;;;;;;1671875;86;21032;-73
2022/05/05 06:51:51;;;;;;;7.67;2.42;;;;;;;;;;1671853;86;21567;-73
2022/05/05 06:54:18;;;;;;;3.22;1.77;;;;;;;;;;1671840;86;21064;-73
2022/05/05 06:56:45;;;;;;;3.15;1.72;;;;;;;;;;1671786;86;21135;-73
2022/05/05 06:59:11;;;;;;;2.83;1.90;;;;;;;;;;1686059;84;21027;-73
2022/05/05 07:01:53;;;;;;;3.20;1.92;;;;;;;;;;1701253;84;21094;-73
2022/05/05 07:07:04;;;;;;;7.08;1.90;;;;;;;;;;1694405;84;21054;-73
2022/05/05 07:12:15;;;;;;;3.55;2.08;;;;;;;;;;1693356;85;21656;-73
2022/05/05 07:14:43;;;;;;;3.12;1.85;;;;;;;;;;1684818;85;21045;-73
2022/05/05 07:17:10;;;;;;;4.42;1.87;;;;;;;;;;1691286;85;21021;-72
2022/05/05 07:19:36;;;;;;;4.35;2.10;;;;;;;;;;1692022;85;21077;-71
2022/05/05 07:22:02;;;;;;;4.67;2.40;;;;;;;;;;1689103;83;21025;-72
2022/05/05 07:24:30;;;;;;;2.85;1.82;;;;;;;;;;1687133;85;21114;-71
2022/05/05 07:26:56;;;;;;;2.58;1.90;;;;;;;;;;1693426;85;21042;-72
2022/05/05 07:29:22;;;;;;;4.25;2.10;;;;;;;;;;1693530;85;21097;-72
2022/05/05 07:31:49;;;;;;;2.45;2.00;;;;;;;;;;1692198;84;21068;-71
2022/05/05 07:34:15;;;;;;;3.85;2.02;;;;;;;;;;1691815;85;21587;-72
2022/05/05 07:36:43;;;;;;;3.80;1.90;;;;;;;;;;1691620;85;21147;-73
2022/05/05 07:39:09;;;;;;;5.28;2.20;;;;;;;;;;1691621;83;21045;-73
2022/05/05 07:41:35;;;;;;;3.08;1.90;;;;;;;;;;1690061;85;21037;-73
2022/05/05 07:44:01;;;;;;;6.45;2.20;;;;;;;;;;1695476;84;21541;-70
2022/05/05 07:46:28;;;;;;;2.22;1.77;;;;;;;;;;1698032;84;21029;-72
2022/05/05 07:48:54;;;;;;;3.02;1.85;;;;;;;;;;1697972;84;21024;-73
2022/05/05 07:51:20;;;;;;;9.13;2.33;;;;;;;;;;1698022;84;21025;-72
2022/05/05 07:54:34;;;;;;;5.90;2.02;;;;;;;;;;1711789;83;21056;-72
2022/05/05 07:56:14;;;;;;;3.40;1.98;;;;;;;;;;1717358;83;21568;-72
2022/05/05 07:58:40;;;;;;;2.52;2.00;;;;;;;;;;1720620;83;21544;-72
2022/05/05 08:01:07;;;;;;;3.45;2.00;;;;;;;;;;1720196;83;21135;-73
2022/05/05 08:03:33;;;;;;;3.75;2.10;;;;;;;;;;1720576;83;21123;-71
2022/05/05 08:05:59;;;;;;;2.98;2.00;;;;;;;;;;1716871;83;21026;-74
2022/05/05 08:08:25;;;;;;;3.15;2.22;;;;;;;;;;1672522;85;21062;-71
2022/05/05 08:10:53;;;;;;;2.80;2.12;;;;;;;;;;1672456;86;21046;-72
2022/05/05 08:13:19;;;;;;;3.10;2.08;;;;;;;;;;1672484;85;21601;-72
2022/05/05 08:15:45;;;;;;;3.77;2.20;;;;;;;;;;1672651;85;21051;-71
2022/05/05 08:18:11;;;;;;;2.45;1.80;;;;;;;;;;1672720;85;21079;-72
2022/05/05 08:20:37;;;;;;;2.55;1.90;;;;;;;;;;1672258;86;21079;-72
2022/05/05 08:23:03;;;;;;;3.80;2.10;;;;;;;;;;1672191;86;21044;-72
2022/05/05 08:28:29;;;;;;;3.67;2.05;;;;;;;;;;1670706;85;21043;-71
2022/05/05 08:30:58;;;;;;;3.22;2.05;;;;;;;;;;1672405;85;21024;-72
2022/05/05 08:33:27;;;;;;;3.08;2.17;;;;;;;;;;1672458;85;21042;-73
2022/05/05 08:35:54;;;;;;;3.67;2.20;;;;;;;;;;1663393;86;21082;-73
2022/05/05 08:39:26;;;;;;;12.73;2.98;;;;;;;;;;1813039;79;22780;-72
2022/05/05 08:41:53;;;;;;;2.95;2.30;;;;;;;;;;1774513;80;21083;-72
2022/05/05 08:44:19;;;;;;;4.55;2.42;;;;;;;;;;1775737;80;21549;-72
2022/05/05 08:46:45;;;;;;;2.95;1.90;;;;;;;;;;1770726;80;21012;-73
2022/05/05 08:49:11;;;;;;;5.65;2.55;;;;;;;;;;1757918;80;20989;-72
2022/05/05 08:51:41;;;;;;;2.70;2.00;;;;;;;;;;1712246;83;21118;-72
2022/05/05 08:54:07;;;;;;;3.65;2.08;;;;;;;;;;1694010;84;21028;-73
2022/05/05 08:56:34;;;;;;;2.45;2.00;;;;;;;;;;1689333;84;21523;-72
2022/05/05 08:59:02;;;;;;;2.75;2.05;;;;;;;;;;1709142;84;21083;-72
2022/05/05 09:01:30;;;;;;;3.08;1.95;;;;;;;;;;1698043;84;21521;-72
2022/05/05 09:03:56;;;;;;;3.47;2.22;;;;;;;;;;1682874;85;21654;-73
2022/05/05 09:06:22;;;;;;;3.02;1.98;;;;;;;;;;1682948;85;21041;-73
2022/05/05 09:08:48;;;;;;;2.50;1.80;;;;;;;;;;1633798;87;21064;-73
2022/05/05 09:11:17;;;;;;;2.95;2.10;;;;;;;;;;1656009;87;21121;-72
2022/05/05 09:13:43;;;;;;;2.72;1.92;;;;;;;;;;1679914;85;21053;-72
2022/05/05 09:16:10;;;;;;;2.85;2.10;;;;;;;;;;1719242;81;21040;-73
2022/05/05 09:18:38;;;;;;;3.87;2.00;;;;;;;;;;1758209;81;21067;-72
2022/05/05 09:21:04;;;;;;;3.22;2.12;;;;;;;;;;1723833;83;21039;-73
2022/05/05 09:26:22;;;;;;;4.12;1.80;;;;;;;;;;1699190;84;21070;-72
2022/05/05 09:28:49;;;;;;;3.50;2.02;;;;;;;;;;1707942;84;21061;-72
2022/05/05 09:31:16;;;;;;;2.90;2.00;;;;;;;;;;1714617;84;21080;-73
2022/05/05 09:33:43;;;;;;;4.05;2.27;;;;;;;;;;1714460;84;21140;-72
2022/05/05 09:36:10;;;;;;;2.67;1.90;;;;;;;;;;1698320;84;20961;-74
2022/05/05 09:38:50;;;;;;;2.70;1.90;;;;;;;;;;1702352;83;21047;-73
2022/05/05 09:41:22;;;;;;;2.70;1.98;;;;;;;;;;1691383;85;21049;-74
2022/05/05 09:43:48;;;;;;;4.60;1.90;;;;;;;;;;1694923;85;21432;-73
2022/05/05 09:46:28;;;;;;;2.40;2.00;;;;;;;;;;1707722;84;21029;-74
2022/05/05 09:49:11;;;;;;;3.30;2.17;;;;;;;;;;1725801;83;21008;-74
2022/05/05 09:51:39;;;;;;;3.98;2.10;;;;;;;;;;1707155;84;21026;-72
2022/05/05 09:59:36;;;;;;;2.20;2.00;;;;;;;;;;1689723;84;21088;-73
2022/05/05 10:02:04;;;;;;;2.80;2.02;;;;;;;;;;1689539;84;21088;-74
2022/05/05 10:04:32;;;;;;;2.55;1.90;;;;;;;;;;1698269;84;21060;-74
2022/05/05 10:06:58;;;;;;;3.87;2.20;;;;;;;;;;1662472;85;21065;-74
2022/05/05 10:09:25;;;;;;;6.95;2.42;;;;;;;;;;1671302;84;21144;-73
2022/05/05 10:11:51;;;;;;;4.92;2.40;;;;;;;;;;1707152;84;21553;-74
2022/05/05 10:14:18;;;;;;;4.37;2.00;;;;;;;;;;1707410;84;21029;-74
2022/05/05 10:16:44;;;;;;;7.00;2.77;;;;;;;;;;1682949;84;21081;-74
2022/05/05 10:19:10;;;;;;;5.03;2.58;;;;;;;;;;1683797;84;21119;-74
2022/05/05 10:21:56;;;;;;;3.55;2.12;;;;;;;;;;1713332;84;21100;-74
2022/05/05 10:24:25;;;;;;;2.03;1.77;;;;;;;;;;1683839;85;21029;-73
2022/05/05 10:26:54;;;;;;;3.87;2.05;;;;;;;;;;1683273;85;21112;-74
2022/05/05 10:29:34;;;;;;;3.08;1.92;;;;;;;;;;1683554;85;22208;-74
2022/05/05 10:32:06;;;;;;;3.37;2.10;;;;;;;;;;1683448;85;21065;-74
2022/05/05 10:34:33;;;;;;;4.67;2.25;;;;;;;;;;1683702;85;21480;-74
2022/05/05 10:37:01;;;;;;;3.67;2.20;;;;;;;;;;1683460;85;21557;-73
2022/05/05 10:39:28;;;;;;;2.60;2.00;;;;;;;;;;1673728;85;21062;-74
2022/05/05 10:42:02;;;;;;;3.42;2.12;;;;;;;;;;1739250;82;21056;-76
2022/05/05 10:44:29;;;;;;;4.42;2.10;;;;;;;;;;1716467;82;21068;-76
2022/05/05 10:47:03;;;;;;;2.95;1.90;;;;;;;;;;1741486;82;20984;-76
2022/05/05 10:49:37;;;;;;;4.65;2.08;;;;;;;;;;1741145;82;21076;-75
2022/05/05 10:52:03;;;;;;;;;;;;;;;;;;1744002;82;21025;-74
2022/05/05 10:54:29;;;;;;;4.58;2.40;;;;;;;;;;1747452;82;20408;-75
2022/05/05 10:56:56;;;;;;;4.85;2.17;;;;;;;;;;1753682;82;21493;-75
2022/05/05 10:59:22;;;;;;;2.00;1.75;;;;;;;;;;1736884;82;21060;-75
2022/05/05 11:01:50;;;;;;;3.50;1.90;;;;;;;;;;1753627;82;21053;-75
2022/05/05 11:04:20;;;;;;;3.30;2.10;;;;;;;;;;1744994;82;21086;-75
2022/05/05 11:06:49;;;;;;;4.28;2.27;;;;;;;;;;1753730;82;21503;-74
2022/05/05 11:09:32;;;;;;;5.58;2.30;;;;;;;;;;1753619;81;21089;-74
2022/05/05 11:12:12;;;;;;;5.67;2.20;;;;;;;;;;1747011;82;21066;-74
2022/05/05 11:23:06;;;;;;;5.40;2.55;;;;;;;;;;1752573;82;21012;-73
2022/05/05 11:25:34;;;;;;;2.70;1.98;;;;;;;;;;1752819;82;21023;-74
2022/05/05 11:28:00;;;;;;;2.58;2.00;;;;;;;;;;1732322;82;20990;-73
2022/05/05 11:30:26;;;;;;;2.87;2.17;;;;;;;;;;1722914;83;20997;-73
2022/05/05 11:32:52;;;;;;;4.90;2.20;;;;;;;;;;1721896;82;21088;-74
2022/05/05 11:35:25;;;;;;;3.52;1.90;;;;;;;;;;1745617;82;20993;-74
2022/05/05 11:37:49;;;;;;;5.67;2.40;;;;;;;;;;1731922;82;21131;-73
2022/05/05 11:40:15;;;;;;;3.02;2.00;;;;;;;;;;1755511;81;21052;-74
2022/05/05 11:45:29;;;;;;;3.33;1.90;;;;;;;;;;1761354;81;21417;-73
2022/05/05 11:47:55;;;;;;;2.50;1.80;;;;;;;;;;1714739;83;21046;-74
2022/05/05 11:50:21;;;;;;;3.42;2.22;;;;;;;;;;1703498;84;21026;-73
2022/05/05 11:52:48;;;;;;;3.90;1.87;;;;;;;;;;1704274;84;21104;-73
2022/05/05 11:55:15;;;;;;;19.55;3.05;;;;;;;;;;1725398;83;21586;-74
2022/05/05 11:57:45;;;;;;;2.65;1.95;;;;;;;;;;1720237;83;21048;-74
2022/05/05 12:02:56;;;;;;;8.10;2.42;;;;;;;;;;1712004;83;21048;-73
2022/05/05 12:05:22;;;;;;;2.40;2.00;;;;;;;;;;1690456;85;21525;-73
2022/05/05 12:07:50;;;;;;;2.90;1.77;;;;;;;;;;1692374;85;21093;-73
2022/05/05 12:10:16;;;;;;;2.20;1.80;;;;;;;;;;1696387;84;20966;-71
2022/05/05 12:12:43;;;;;;;3.72;1.90;;;;;;;;;;1725391;83;21524;-72
2022/05/05 12:15:10;;;;;;;4.87;2.17;;;;;;;;;;1725545;83;20964;-72
2022/05/05 12:17:42;;;;;;;3.77;2.10;;;;;;;;;;1706675;84;21084;-72
2022/05/05 12:20:09;;;;;;;3.33;1.98;;;;;;;;;;1705843;84;21069;-72
2022/05/05 12:22:39;;;;;;;4.90;1.85;;;;;;;;;;1706797;84;21085;-72
2022/05/05 12:25:09;;;;;;;2.83;2.00;;;;;;;;;;1706738;84;21014;-70
2022/05/05 12:27:36;;;;;;;3.60;2.05;;;;;;;;;;1706600;84;21042;-73
2022/05/05 12:30:03;;;;;;;3.22;2.02;;;;;;;;;;1704939;84;21026;-73
2022/05/05 12:32:31;;;;;;;3.02;2.20;;;;;;;;;;1706951;84;21026;-73
2022/05/05 12:35:02;;;;;;;3.85;2.00;;;;;;;;;;1706845;84;21081;-73
2022/05/05 12:37:28;;;;;;;3.92;1.80;;;;;;;;;;1706890;84;21053;-72
2022/05/05 12:39:58;;;;;;;2.25;2.00;;;;;;;;;;1705105;84;21085;-72
2022/05/05 12:42:24;;;;;;;4.53;2.02;;;;;;;;;;1755189;81;20993;-72
2022/05/05 12:44:51;;;;;;;3.40;2.10;;;;;;;;;;1755124;81;21017;-72
2022/05/05 12:47:23;;;;;;;29.95;4.78;;;;;;;;;;1747102;81;20980;-72
2022/05/05 12:49:49;;;;;;;3.27;2.40;;;;;;;;;;1743584;82;21047;-72
2022/05/05 13:00:29;;;;;;;2.58;2.00;;;;;;;;;;1724403;83;21158;-72
2022/05/05 13:02:55;;;;;;;2.37;1.75;;;;;;;;;;1752271;81;21536;-73
2022/05/05 13:05:21;;;;;;;3.52;1.92;;;;;;;;;;1754416;82;21005;-74
2022/05/05 13:07:47;;;;;;;3.12;1.67;;;;;;;;;;1756814;81;21021;-73
2022/05/05 13:10:15;;;;;;;3.80;2.10;;;;;;;;;;1742010;82;21059;-73
2022/05/05 13:12:41;;;;;;;3.90;2.17;;;;;;;;;;1741710;82;21004;-73
2022/05/05 13:15:08;;;;;;;4.15;2.00;;;;;;;;;;1752118;82;20993;-72
2022/05/05 13:17:36;;;;;;;2.65;1.85;;;;;;;;;;1755543;82;21103;-73
2022/05/05 13:20:02;;;;;;;2.37;1.85;;;;;;;;;;1739662;81;21036;-72
2022/05/05 13:22:29;;;;;;;1.80;1.60;;;;;;;;;;1744637;82;21052;-72
2022/05/05 13:24:55;;;;;;;2.72;1.90;;;;;;;;;;1755996;82;21096;-72
2022/05/05 13:27:21;;;;;;;4.87;2.00;;;;;;;;;;1749851;82;21037;-72
2022/05/05 13:29:47;;;;;;;3.42;2.08;;;;;;;;;;1720381;83;21080;-72
2022/05/05 13:32:13;;;;;;;3.42;1.85;;;;;;;;;;1733935;82;20989;-72
2022/05/05 13:34:39;;;;;;;3.10;1.72;;;;;;;;;;1742058;82;21003;-72
2022/05/05 13:37:05;;;;;;;2.83;1.95;;;;;;;;;;1747607;82;20949;-72
2022/05/05 13:39:31;;;;;;;7.12;1.98;;;;;;;;;;1748106;82;21002;-72
2022/05/05 13:41:57;;;;;;;2.65;2.10;;;;;;;;;;1743839;82;21497;-72
2022/05/05 13:44:23;;;;;;;2.50;1.90;;;;;;;;;;1737848;82;21065;-72
2022/05/05 13:46:50;;;;;;;5.00;2.45;;;;;;;;;;1736796;82;20966;-73
2022/05/05 13:49:17;;;;;;;3.12;2.17;;;;;;;;;;1712770;83;21500;-72
2022/05/05 13:51:43;;;;;;;1.95;1.67;;;;;;;;;;1712323;84;21001;-74
2022/05/05 13:54:09;;;;;;;3.12;2.00;;;;;;;;;;1706590;83;21083;-73
2022/05/05 13:56:35;;;;;;;6.87;3.12;;;;;;;;;;1683966;84;21477;-74
2022/05/05 13:59:02;;;;;;;3.27;2.10;;;;;;;;;;1677965;85;21001;-74
2022/05/05 14:01:31;;;;;;;4.40;2.35;;;;;;;;;;1733293;82;21042;-73
2022/05/05 14:03:57;;;;;;;4.25;2.55;;;;;;;;;;1742855;82;21028;-73
2022/05/05 14:06:23;;;;;;;2.80;2.05;;;;;;;;;;1712238;84;21543;-74
2022/05/05 14:14:19;;;;;;;6.42;2.40;;;;;;;;;;1718607;83;21033;-73
2022/05/05 14:16:45;;;;;;;3.30;1.87;;;;;;;;;;1746719;82;21453;-73
2022/05/05 14:19:11;;;;;;;3.85;1.75;;;;;;;;;;1748030;81;21036;-73
2022/05/05 14:21:37;;;;;;;2.85;2.10;;;;;;;;;;1743988;82;21028;-73
2022/05/05 14:24:03;;;;;;;2.85;2.17;;;;;;;;;;1744873;82;21575;-74
2022/05/05 14:26:29;;;;;;;4.62;1.80;;;;;;;;;;1747598;81;21521;-73
2022/05/05 14:28:55;;;;;;;2.92;1.95;;;;;;;;;;1748087;82;20962;-73
2022/05/05 14:31:22;;;;;;;3.35;1.87;;;;;;;;;;1747932;82;21069;-74
2022/05/05 14:33:49;;;;;;;3.08;1.90;;;;;;;;;;1712087;84;21044;-73
2022/05/05 14:36:16;;;;;;;4.62;2.20;;;;;;;;;;1748024;82;21493;-75
2022/05/05 14:38:42;;;;;;;2.33;1.95;;;;;;;;;;1747905;81;21037;-73
2022/05/05 14:41:08;;;;;;;2.52;1.95;;;;;;;;;;1747982;82;21031;-73
2022/05/05 14:43:35;;;;;;;3.33;1.98;;;;;;;;;;1746020;82;21576;-73
2022/05/05 14:46:01;;;;;;;5.00;2.30;;;;;;;;;;1747862;81;21042;-74
2022/05/05 14:48:30;;;;;;;9.50;5.05;;;;;;;;;;1747794;81;21533;-74
2022/05/05 14:50:57;;;;;;;14.40;3.60;;;;;;;;;;1746343;82;21040;-73
2022/05/05 14:53:23;;;;;;;3.20;2.00;;;;;;;;;;1748069;82;21024;-74
2022/05/05 14:55:50;;;;;;;5.95;3.15;;;;;;;;;;1747820;82;21063;-74
2022/05/05 14:58:16;;;;;;;5.15;3.08;;;;;;;;;;1719764;82;21048;-73
2022/05/05 15:00:44;;;;;;;11.18;5.03;;;;;;;;;;1741846;82;21011;-74
2022/05/05 15:03:10;;;;;;;6.87;4.30;;;;;;;;;;1728206;81;21118;-74
2022/05/05 15:05:36;;;;;;;5.00;2.50;;;;;;;;;;1729505;82;21023;-73
2022/05/05 15:08:03;;;;;;;4.33;2.02;;;;;;;;;;1747472;82;21088;-73
2022/05/05 15:10:29;;;;;;;4.47;2.87;;;;;;;;;;1747850;82;21051;-72
2022/05/05 15:12:55;;;;;;;3.30;2.30;;;;;;;;;;1748167;82;20987;-73
2022/05/05 15:15:21;;;;;;;4.65;2.40;;;;;;;;;;1721376;82;21030;-74
2022/05/05 15:17:47;;;;;;;5.53;2.30;;;;;;;;;;1748119;81;21021;-73
2022/05/05 15:20:15;;;;;;;3.70;1.95;;;;;;;;;;1748152;82;21025;-72
2022/05/05 15:22:41;;;;;;;4.95;2.27;;;;;;;;;;1748043;82;21013;-73
2022/05/05 15:25:11;;;;;;;2.92;2.10;;;;;;;;;;1748127;82;21017;-72
2022/05/05 15:27:38;;;;;;;3.87;1.90;;;;;;;;;;1712270;84;21064;-73
2022/05/05 15:30:05;;;;;;;2.62;1.82;;;;;;;;;;1698839;84;21053;-72
2022/05/05 15:32:31;;;;;;;4.35;2.20;;;;;;;;;;1748060;82;21197;-72
2022/05/05 15:34:58;;;;;;;3.27;2.05;;;;;;;;;;1712281;84;21004;-74
2022/05/05 15:37:25;;;;;;;3.30;1.82;;;;;;;;;;1747254;81;21049;-73
2022/05/05 15:39:52;;;;;;;2.87;1.98;;;;;;;;;;1752743;81;21081;-72
2022/05/05 15:42:18;;;;;;;2.90;2.10;;;;;;;;;;1725210;83;21095;-73
2022/05/05 15:44:44;;;;;;;2.40;2.00;;;;;;;;;;1706192;84;21521;-72
2022/05/05 15:47:10;;;;;;;3.27;2.00;;;;;;;;;;1724856;83;21020;-73
2022/05/05 15:49:37;;;;;;;2.90;2.10;;;;;;;;;;1704426;84;21053;-73
2022/05/05 15:52:04;;;;;;;3.15;1.90;;;;;;;;;;1707074;84;21073;-71